»·PEaware :: N7GL KHND-KRAL

N7GL :: KHND-KRAL

FLIGHT INFORMATION

Flight Status: Arrived
Operator: Privately registered:
United States
More flights under this callsign
Pilot: Georg L. (13308)
Aircraft: BEECH AIRCRAFT SUPER KING AIR 350
(B350)
More flights by this aircraft type
Origin: KHND Henderson
United States
Destination: KRAL Riverside Mun
United States
More flights between these airports :: More routes between these airports
Route: +CRESO V538 GFS HEC V8 PDZ
File this flight plan on PilotEdge
Remarks:
Altitude:
(Current/Filed)
24,000ft
Speed:
(Current/Filed)
293kts
Departed: 13-Oct-20 11:47 AM
Arrived: 13-Oct-20 12:36 PM
Distance/Time
Traveled:
166nm/0:49
Distance/Time
To Go:
Arrived

Flight Plot

Page will automatically refresh every two minutes.

Flight plan parsing failed; only flown route is shown


Map Options




Map Legend


Flown Route
Filed Route
Departure Airport
Arrival Airport
Navaid (VOR, NDB)
Fix

Horizontal Profiles

Position Reports

Time Latitude Longitude Heading Altitude Ground
Speed
13-Oct-20 11:32 35.977366 -115.137458 0 2416ft 0kts
13-Oct-20 11:33 35.977366 -115.137458 0 2416ft 0kts
13-Oct-20 11:34 35.977366 -115.137458 0 2416ft 0kts
13-Oct-20 11:35 35.977366 -115.137458 0 2416ft 0kts
13-Oct-20 11:36 35.977366 -115.137458 0 2416ft 0kts
13-Oct-20 11:36 35.977366 -115.137458 0 2416ft 0kts
13-Oct-20 11:38 35.977366 -115.137458 0 2416ft 0kts
13-Oct-20 11:38 35.977366 -115.137458 0 2416ft 0kts
13-Oct-20 11:40 35.977366 -115.137458 0 2416ft 0kts
13-Oct-20 11:40 35.977366 -115.137458 0 2416ft 0kts
13-Oct-20 11:41 35.977468 -115.136922 95 2417ft 1kts
13-Oct-20 11:42 35.974630 -115.136421 181 2431ft 24kts
13-Oct-20 11:43 35.968441 -115.136505 181 2463ft 28kts
13-Oct-20 11:44 35.963176 -115.136489 137 2493ft 2kts
13-Oct-20 11:45 35.964213 -115.135522 1 2489ft 31kts
13-Oct-20 11:46 35.997484 -115.132582 23 3180ft 160kts
13-Oct-20 11:47 35.985753 -115.098700 191 4839ft 183kts
13-Oct-20 11:48 35.934896 -115.110793 191 6359ft 188kts
13-Oct-20 11:49 35.883475 -115.122958 191 7831ft 189kts
13-Oct-20 11:50 35.831927 -115.134720 191 9156ft 189kts
13-Oct-20 11:51 35.779170 -115.138563 184 10407ft 191kts
13-Oct-20 11:52 35.726209 -115.141532 185 11584ft 192kts
13-Oct-20 11:53 35.672677 -115.144689 185 12694ft 196kts
13-Oct-20 11:54 35.618059 -115.147903 185 13864ft 198kts
13-Oct-20 11:55 35.562493 -115.151160 185 15011ft 202kts
13-Oct-20 11:56 35.506099 -115.154474 185 16175ft 205kts
13-Oct-20 11:57 35.454356 -115.171567 245 17413ft 196kts
13-Oct-20 11:58 35.426210 -115.228745 242 18765ft 198kts
13-Oct-20 11:59 35.397281 -115.285928 242 20101ft 198kts
13-Oct-20 12:00 35.368434 -115.343334 242 21424ft 198kts
13-Oct-20 12:01 35.339586 -115.400712 242 22649ft 198kts
13-Oct-20 12:02 35.310678 -115.458115 243 23787ft 198kts
13-Oct-20 12:03 35.279747 -115.519787 242 24068ft 230kts
13-Oct-20 12:04 35.245240 -115.588154 242 24059ft 241kts
13-Oct-20 12:05 35.209349 -115.659048 241 24058ft 249kts
13-Oct-20 12:06 35.172591 -115.731488 241 24136ft 250kts
13-Oct-20 12:07 35.135657 -115.804159 241 24131ft 253kts
13-Oct-20 12:08 35.098129 -115.877851 241 24130ft 256kts
13-Oct-20 12:09 35.060389 -115.951790 241 24134ft 257kts
13-Oct-20 12:10 35.022369 -116.026110 241 24147ft 259kts
13-Oct-20 12:11 34.984059 -116.100834 241 24161ft 260kts
13-Oct-20 12:12 34.945684 -116.175519 241 24175ft 260kts
13-Oct-20 12:13 34.907229 -116.250209 241 24174ft 261kts
13-Oct-20 12:14 34.868381 -116.325482 241 24174ft 261kts
13-Oct-20 12:15 34.829681 -116.400304 241 24199ft 260kts
13-Oct-20 12:16 34.788685 -116.473271 229 24167ft 266kts
13-Oct-20 12:17 34.736424 -116.537625 229 24074ft 268kts
13-Oct-20 12:18 34.684165 -116.602210 229 24060ft 267kts
13-Oct-20 12:19 34.631635 -116.666760 228 24064ft 274kts
13-Oct-20 12:20 34.577555 -116.733060 228 24050ft 278kts
13-Oct-20 12:21 34.517469 -116.806947 228 21967ft 336kts
13-Oct-20 12:22 34.449081 -116.890631 227 19330ft 351kts
13-Oct-20 12:23 34.382043 -116.972175 227 16610ft 335kts
13-Oct-20 12:24 34.317629 -117.050347 226 14004ft 322kts
13-Oct-20 12:25 34.256459 -117.124050 225 11993ft 284kts
13-Oct-20 12:26 34.191647 -117.167231 182 10796ft 286kts
13-Oct-20 12:27 34.112749 -117.170214 183 9190ft 282kts
13-Oct-20 12:28 34.035342 -117.172708 182 7578ft 273kts
13-Oct-20 12:29 33.962260 -117.174921 183 5977ft 249kts
13-Oct-20 12:30 33.910579 -117.208733 258 4636ft 216kts
13-Oct-20 12:31 33.918682 -117.270297 284 3647ft 180kts
13-Oct-20 12:32 33.929149 -117.324453 285 2808ft 158kts
13-Oct-20 12:33 33.939001 -117.373894 283 1969ft 131kts
13-Oct-20 12:34 33.946826 -117.415431 282 1195ft 118kts
13-Oct-20 12:35 33.952627 -117.445571 282 820ft 17kts
13-Oct-20 12:36 33.951772 -117.445026 106 820ft 15kts
13-Oct-20 12:37 33.950262 -117.442794 206 820ft 7kts
13-Oct-20 12:38 33.950118 -117.443121 298 820ft 0kts
13-Oct-20 12:39 33.950117 -117.443121 298 820ft 0kts
13-Oct-20 12:40 33.950118 -117.443121 298 820ft 0kts
13-Oct-20 12:41 33.950118 -117.443121 298 820ft 0kts
13-Oct-20 12:42 33.950118 -117.443121 298 820ft 0kts
13-Oct-20 12:43 33.950118 -117.443121 298 820ft 0kts
13-Oct-20 12:44 33.950077 -117.442673 284 820ft 0kts
13-Oct-20 12:45 33.950084 -117.442582 267 820ft 0kts
13-Oct-20 12:46 33.950084 -117.442582 267 820ft 0kts
13-Oct-20 12:47 33.950084 -117.442582 267 820ft 0kts
13-Oct-20 12:48 33.950084 -117.442582 267 820ft 0kts

Navigation Log

Ident Type
Flight plan parsing failed, navigation log unavailable